Decoded Metar for KCXO (CONROE in TX, USA) (IATA:CXO) | Meteo·Mobile Aviation Weather
aviador You're here:

KCXO Decoded Metar

CONROE in TX, USA
Report Time2019-02-22 14:53:00
UTC Time2019-02-22 15:06:03
Flight Rules lifr LIFR
Wind100° at 05 kt
W.Decomp.*RWY 14: 3.5 kt HW 3.5 kt LCW
RWY 01: 0.4 kt HW 5.0 kt RCW
W.Rank100° ranks 19
Current wind is above 100° avg. (4.7)
Visibility1207 m
Phenomena:Mist
Clouds:Overcast 002 Hf
Ceiling200 ft
Temp11°C (ISA -4)
Dew Point11°C (100% RH)
AAT9.5°C
QNH1016 hPa
Density Alt-98 ft
Elevation246 ft
Report Wrong Elevation
Raw Report
KCXO 221453Z 10005KT 3/4SM BR OVC002 11/11 A2999 RMK AO2 SLP154
60000 T01060106 53007=

Extra information for KCXO:More info

Metar Taf Metar & Taf Last 4 Metars F.Rules Stats Wind Profile Meteogram Temp Stats Airport Information Weather charts Add Link Nearby VenuesMetar ALERT Operation Metar Decoded Social comments

AIRNAV info for KCXO